Time;durP1;ratioP1;P1;durP2;ratioP2;P2;SDS_P1;SDS_P2;PMS_P1;PMS_P2;Temp;Humidity;BMP_temperature;BMP_pressure;BME280_temperature;BME280_humidity;BME280_pressure;Samples;Min_cycle;Max_cycle;Signal;HPM_P1;HPM_P2
2022/11/25 00:01:14;;;;;;;3.83;1.60;;;17.90;44.60;;;;;;5038312;28;20039;-57
2022/11/25 00:03:41;;;;;;;6.10;2.13;;;17.90;44.60;;;;;;5037782;28;20207;-56
2022/11/25 00:06:11;;;;;;;5.30;1.65;;;17.90;44.60;;;;;;5037277;28;20377;-59
2022/11/25 00:08:37;;;;;;;3.50;1.45;;;17.90;44.60;;;;;;5038307;28;20048;-58
2022/11/25 00:11:05;;;;;;;4.13;1.80;;;17.90;45.20;;;;;;5037587;28;20345;-58
2022/11/25 00:13:31;;;;;;;4.07;1.55;;;17.90;44.60;;;;;;5036726;28;20076;-59
2022/11/25 00:16:04;;;;;;;5.25;1.70;;;17.90;44.60;;;;;;5037571;28;20403;-55
2022/11/25 00:18:30;;;;;;;3.97;1.67;;;17.90;44.70;;;;;;5043544;28;20099;-58
2022/11/25 00:20:56;;;;;;;4.88;1.60;;;17.90;44.80;;;;;;5058020;28;20025;-59
2022/11/25 00:23:22;;;;;;;4.15;1.63;;;17.90;44.90;;;;;;5039789;28;20037;-57
2022/11/25 00:25:48;;;;;;;4.47;1.90;;;17.90;45.00;;;;;;5057592;28;20025;-60
2022/11/25 00:28:14;;;;;;;4.63;1.40;;;17.90;45.00;;;;;;5039624;28;20037;-58
2022/11/25 00:30:40;;;;;;;4.10;1.42;;;17.90;45.10;;;;;;5023225;28;20491;-57
2022/11/25 00:33:06;;;;;;;4.22;1.60;;;17.90;45.10;;;;;;5039525;28;20091;-57
2022/11/25 00:35:34;;;;;;;4.97;1.42;;;17.90;45.10;;;;;;5057181;28;20033;-56
2022/11/25 00:37:59;;;;;;;3.28;1.77;;;17.90;45.20;;;;;;5056764;28;20035;-57
2022/11/25 00:40:25;;;;;;;5.75;1.48;;;17.90;45.20;;;;;;5038385;28;20119;-56
2022/11/25 00:45:36;;;;;;;3.85;1.42;;;17.90;45.40;;;;;;5039602;28;20036;-54
2022/11/25 00:48:02;;;;;;;5.38;1.73;;;17.90;45.40;;;;;;5022317;28;20360;-58
2022/11/25 00:50:27;;;;;;;6.82;1.95;;;17.90;45.40;;;;;;5057062;28;20033;-54
2022/11/25 00:52:53;;;;;;;3.78;1.90;;;17.80;45.40;;;;;;5039222;28;20040;-55
2022/11/25 00:55:19;;;;;;;3.90;1.70;;;17.90;45.50;;;;;;5039310;28;20353;-56
2022/11/25 00:57:45;;;;;;;5.20;1.60;;;17.90;45.60;;;;;;5038938;28;20048;-58
2022/11/25 01:00:12;;;;;;;6.50;2.20;;;17.90;45.60;;;;;;5039598;28;20040;-56
2022/11/25 01:02:40;;;;;;;4.25;1.77;;;17.90;45.60;;;;;;5056701;28;20037;-53
2022/11/25 01:05:06;;;;;;;4.40;1.65;;;17.80;45.60;;;;;;5039706;28;20411;-55
2022/11/25 01:07:33;;;;;;;5.35;1.83;;;17.90;45.70;;;;;;5056811;28;20056;-51
2022/11/25 01:09:59;;;;;;;6.00;1.95;;;17.90;45.70;;;;;;5023119;28;20037;-58
2022/11/25 01:12:25;;;;;;;4.95;1.80;;;17.90;45.80;;;;;;5038584;28;20033;-55
2022/11/25 01:14:51;;;;;;;4.50;1.58;;;17.80;45.80;;;;;;5056360;28;20371;-56
2022/11/25 01:17:17;;;;;;;5.32;1.83;;;17.80;45.80;;;;;;5038676;28;20029;-58
2022/11/25 01:19:42;;;;;;;4.72;1.50;;;17.80;45.80;;;;;;5056241;28;20056;-57
2022/11/25 01:22:08;;;;;;;4.78;1.77;;;17.90;45.90;;;;;;5038903;28;20049;-58
2022/11/25 01:24:34;;;;;;;4.40;1.40;;;17.80;45.90;;;;;;5056365;28;20480;-55
2022/11/25 01:27:00;;;;;;;3.95;1.60;;;17.80;46.00;;;;;;5038311;28;20175;-54
2022/11/25 01:29:26;;;;;;;3.90;1.75;;;17.90;46.10;;;;;;5038543;28;20041;-56
2022/11/25 01:31:55;;;;;;;5.35;1.95;;;17.80;46.00;;;;;;5056531;28;20340;-60
2022/11/25 01:34:23;;;;;;;5.03;1.70;;;17.90;46.10;;;;;;5022173;28;20456;-57
2022/11/25 01:36:48;;;;;;;3.35;1.40;;;17.80;46.10;;;;;;5022404;28;20388;-56
2022/11/25 01:39:23;;;;;;;5.05;1.65;;;17.80;46.10;;;;;;5038378;28;20029;-57
2022/11/25 01:41:49;;;;;;;6.78;1.48;;;17.90;46.20;;;;;;5039059;28;20108;-58
2022/11/25 01:44:21;;;;;;;4.75;1.50;;;17.90;46.20;;;;;;5055821;28;20412;-54
2022/11/25 01:47:11;;;;;;;4.72;1.42;;;17.80;46.20;;;;;;5055933;28;20029;-57
2022/11/25 01:49:40;;;;;;;4.65;1.60;;;17.80;46.20;;;;;;5037770;28;20044;-58
2022/11/25 01:52:15;;;;;;;5.68;1.48;;;17.90;46.30;;;;;;5056012;28;20349;-54
2022/11/25 01:54:58;;;;;;;5.38;1.50;;;17.80;46.30;;;;;;5038331;28;20123;-56
2022/11/25 01:57:29;;;;;;;4.88;1.48;;;17.90;46.30;;;;;;5038191;28;20400;-56
2022/11/25 01:59:58;;;;;;;3.80;1.63;;;17.80;46.30;;;;;;5037908;28;20116;-53
2022/11/25 02:02:23;;;;;;;4.80;1.50;;;17.80;46.30;;;;;;5021420;28;20051;-55
2022/11/25 02:04:49;;;;;;;5.78;1.60;;;17.80;46.30;;;;;;5021608;28;20436;-55
2022/11/25 02:07:31;;;;;;;4.03;1.35;;;17.90;46.40;;;;;;5037780;28;20024;-55
2022/11/25 02:09:58;;;;;;;6.85;1.60;;;17.80;46.40;;;;;;5054922;28;20442;-57
2022/11/25 02:12:25;;;;;;;4.32;2.03;;;17.80;46.40;;;;;;5055571;28;20543;-54
2022/11/25 02:14:54;;;;;;;3.40;1.38;;;17.80;46.50;;;;;;5055578;28;20041;-56
2022/11/25 02:17:20;;;;;;;3.35;1.25;;;17.80;46.50;;;;;;5055023;28;20082;-55
2022/11/25 02:19:58;;;;;;;4.65;1.40;;;17.80;46.50;;;;;;5021180;28;20057;-58
2022/11/25 02:22:50;;;;;;;7.65;1.83;;;17.80;46.50;;;;;;5055044;28;20111;-55
2022/11/25 02:25:22;;;;;;;4.05;1.45;;;17.80;46.50;;;;;;5037328;28;20055;-57
2022/11/25 02:27:56;;;;;;;3.65;1.52;;;17.80;46.50;;;;;;5038057;28;20031;-58
2022/11/25 02:30:22;;;;;;;8.20;2.13;;;17.80;46.50;;;;;;5037407;28;20045;-56
2022/11/25 02:32:48;;;;;;;3.65;1.65;;;17.80;46.60;;;;;;5037618;28;20024;-59
2022/11/25 02:35:32;;;;;;;3.80;1.42;;;17.80;46.60;;;;;;5037304;28;20448;-56
2022/11/25 02:38:03;;;;;;;5.45;1.60;;;17.80;46.60;;;;;;5037256;28;20035;-55
2022/11/25 02:40:30;;;;;;;4.97;1.60;;;17.80;46.70;;;;;;5037885;28;20096;-58
2022/11/25 02:42:59;;;;;;;3.30;1.42;;;17.80;46.70;;;;;;5055583;28;20104;-56
2022/11/25 02:45:54;;;;;;;5.45;1.73;;;17.80;46.70;;;;;;5036912;28;20036;-57
2022/11/25 02:48:20;;;;;;;3.67;1.25;;;17.80;46.80;;;;;;5020625;28;20120;-59
2022/11/25 02:50:46;;;;;;;4.32;1.25;;;17.80;46.80;;;;;;5037087;28;20055;-58
2022/11/25 02:53:13;;;;;;;5.93;1.67;;;17.80;46.80;;;;;;5037623;28;20143;-51
2022/11/25 02:55:39;;;;;;;5.35;1.80;;;17.80;46.80;;;;;;5037150;28;20444;-59
2022/11/25 02:58:05;;;;;;;5.13;1.52;;;17.80;46.80;;;;;;5037369;28;20033;-55
2022/11/25 03:00:31;;;;;;;4.30;1.40;;;17.80;46.80;;;;;;5055089;28;20208;-58
2022/11/25 03:02:57;;;;;;;5.47;1.63;;;17.80;46.80;;;;;;5038924;28;20032;-57
2022/11/25 03:05:23;;;;;;;4.57;1.92;;;17.80;46.90;;;;;;5040942;28;20040;-56
2022/11/25 03:07:49;;;;;;;3.58;1.40;;;17.80;46.90;;;;;;5041072;28;20033;-58
2022/11/25 03:10:18;;;;;;;10.13;1.95;;;17.80;46.90;;;;;;5024929;28;20040;-55
2022/11/25 03:12:44;;;;;;;4.20;1.63;;;17.80;47.00;;;;;;5041275;28;20060;-59
2022/11/25 03:15:10;;;;;;;3.58;1.55;;;17.80;47.00;;;;;;5041052;28;20440;-54
2022/11/25 03:17:36;;;;;;;5.05;1.45;;;17.80;47.10;;;;;;5040850;28;20102;-59
2022/11/25 03:20:04;;;;;;;4.68;1.23;;;17.80;47.20;;;;;;5037444;28;20461;-58
2022/11/25 03:22:30;;;;;;;4.25;1.50;;;17.80;47.20;;;;;;5038699;28;20037;-59
2022/11/25 03:24:56;;;;;;;4.43;1.30;;;17.80;47.20;;;;;;5038530;28;20025;-56
2022/11/25 03:27:22;;;;;;;5.30;1.35;;;17.80;47.30;;;;;;5037574;28;20038;-55
2022/11/25 03:29:48;;;;;;;2.85;1.20;;;17.80;47.30;;;;;;5037317;28;20099;-55
2022/11/25 03:32:14;;;;;;;4.20;1.33;;;17.80;47.40;;;;;;5038342;28;20037;-55
2022/11/25 03:34:40;;;;;;;4.15;1.45;;;17.80;47.40;;;;;;5021051;28;20033;-57
2022/11/25 03:37:06;;;;;;;3.28;1.35;;;17.80;47.50;;;;;;5037428;28;20041;-54
2022/11/25 03:39:32;;;;;;;3.60;1.30;;;17.80;47.50;;;;;;5021000;28;20079;-54
2022/11/25 03:41:58;;;;;;;3.08;1.20;;;17.80;47.60;;;;;;5037672;28;20116;-58
2022/11/25 03:44:24;;;;;;;4.30;1.33;;;17.80;47.60;;;;;;5037328;28;20413;-57
2022/11/25 03:46:51;;;;;;;3.40;1.40;;;17.80;47.70;;;;;;5037155;28;20457;-54
2022/11/25 03:49:18;;;;;;;5.47;1.45;;;17.80;47.70;;;;;;5036857;28;20056;-54
2022/11/25 03:51:43;;;;;;;3.45;1.13;;;17.80;47.80;;;;;;5037569;28;20048;-60
2022/11/25 03:54:10;;;;;;;5.50;1.42;;;17.80;47.80;;;;;;5038142;28;20464;-55
2022/11/25 03:57:02;;;;;;;4.32;1.42;;;17.80;47.90;;;;;;5022258;28;20038;-58
2022/11/25 03:59:29;;;;;;;4.97;1.45;;;17.80;48.00;;;;;;5036896;28;20391;-57
2022/11/25 04:01:54;;;;;;;3.50;1.30;;;17.80;48.00;;;;;;5036921;28;20067;-58
2022/11/25 04:04:21;;;;;;;5.35;1.75;;;17.80;48.00;;;;;;5036439;28;20029;-54
2022/11/25 04:06:47;;;;;;;4.13;1.35;;;17.80;48.10;;;;;;5036828;28;20033;-56
2022/11/25 04:09:13;;;;;;;2.58;1.17;;;17.80;48.10;;;;;;5036536;28;20191;-57
2022/11/25 04:14:26;;;;;;;4.40;1.50;;;17.80;48.30;;;;;;5036379;28;20110;-56
2022/11/25 04:16:52;;;;;;;6.03;1.38;;;17.80;48.30;;;;;;5037848;28;20427;-51
2022/11/25 04:19:18;;;;;;;4.63;1.55;;;17.80;48.40;;;;;;5036383;28;20042;-56
2022/11/25 04:21:44;;;;;;;3.83;1.20;;;17.80;48.40;;;;;;5036578;28;20034;-57
2022/11/25 04:24:10;;;;;;;5.47;1.33;;;17.80;48.40;;;;;;5036473;28;20338;-55
2022/11/25 04:26:36;;;;;;;3.28;1.08;;;17.80;48.50;;;;;;5036174;28;20025;-57
2022/11/25 04:29:02;;;;;;;3.90;1.45;;;17.80;48.50;;;;;;5036017;28;20366;-59
2022/11/25 04:31:28;;;;;;;3.03;1.27;;;17.80;48.50;;;;;;5036588;28;20179;-53
2022/11/25 04:33:54;;;;;;;3.25;1.20;;;17.80;48.60;;;;;;5036328;28;20107;-57
2022/11/25 04:36:22;;;;;;;5.03;1.35;;;17.80;48.50;;;;;;5037093;28;20104;-59
2022/11/25 04:38:48;;;;;;;5.80;1.83;;;17.80;48.60;;;;;;5035975;28;20409;-59
2022/11/25 04:41:14;;;;;;;3.60;1.23;;;17.80;48.60;;;;;;5036121;28;20022;-61
2022/11/25 04:43:42;;;;;;;3.63;1.25;;;17.80;48.60;;;;;;5036069;28;20025;-53
2022/11/25 04:46:23;;;;;;;3.05;1.10;;;17.80;48.70;;;;;;5036380;28;20029;-55
2022/11/25 04:48:50;;;;;;;3.28;1.27;;;17.80;48.70;;;;;;5036111;28;20040;-56
2022/11/25 04:51:17;;;;;;;3.05;1.13;;;17.80;48.70;;;;;;5036006;28;20029;-56
2022/11/25 04:53:45;;;;;;;3.58;1.00;;;17.80;48.70;;;;;;5035984;28;20034;-58
2022/11/25 04:56:21;;;;;;;4.32;1.08;;;17.80;48.80;;;;;;5035555;28;20037;-57
2022/11/25 05:01:37;;;;;;;4.00;1.33;;;17.80;48.80;;;;;;5036022;28;20116;-57
2022/11/25 05:04:16;;;;;;;3.72;1.10;;;17.80;48.80;;;;;;5035724;28;20033;-56
2022/11/25 05:06:42;;;;;;;4.22;1.33;;;17.80;49.50;;;;;;5036442;28;20521;-59
2022/11/25 05:09:10;;;;;;;3.13;1.10;;;17.80;48.90;;;;;;5035566;28;20116;-59
2022/11/25 05:11:38;;;;;;;4.53;1.08;;;17.80;48.90;;;;;;5035594;28;20029;-55
2022/11/25 05:14:04;;;;;;;4.78;1.58;;;17.80;49.50;;;;;;5035482;28;20088;-53
2022/11/25 05:16:30;;;;;;;3.15;1.00;;;17.80;49.00;;;;;;5036591;28;20044;-52
2022/11/25 05:18:56;;;;;;;3.22;1.25;;;17.80;49.00;;;;;;5035033;28;20153;-57
2022/11/25 05:21:23;;;;;;;4.15;1.65;;;17.80;49.00;;;;;;5035869;28;20524;-57
2022/11/25 05:23:49;;;;;;;5.25;1.25;;;17.80;49.10;;;;;;5035332;28;20175;-57
2022/11/25 05:26:15;;;;;;;4.65;1.65;;;17.80;49.10;;;;;;5034523;28;20120;-58
2022/11/25 05:28:45;;;;;;;3.30;1.25;;;17.80;49.70;;;;;;5034966;28;20033;-57
2022/11/25 05:31:11;;;;;;;4.60;1.30;;;17.80;49.10;;;;;;5035165;28;20029;-57
2022/11/25 05:33:37;;;;;;;3.88;1.27;;;17.80;49.10;;;;;;5035208;28;20033;-54
2022/11/25 05:36:04;;;;;;;6.13;1.20;;;17.80;49.20;;;;;;5035646;28;20057;-58
2022/11/25 05:38:36;;;;;;;4.47;1.40;;;17.80;49.10;;;;;;5035049;28;20037;-56
2022/11/25 05:41:05;;;;;;;3.72;1.20;;;17.80;49.50;;;;;;5035202;28;20036;-57
2022/11/25 05:43:31;;;;;;;3.40;1.10;;;17.80;49.20;;;;;;5034842;28;20044;-59
2022/11/25 05:46:03;;;;;;;3.67;1.00;;;17.80;49.20;;;;;;5035174;28;20037;-55
2022/11/25 05:48:28;;;;;;;3.35;1.20;;;17.80;49.30;;;;;;5035108;28;20128;-54
2022/11/25 05:51:02;;;;;;;4.43;1.48;;;17.80;49.30;;;;;;5035389;28;20049;-58
2022/11/25 05:53:30;;;;;;;4.18;1.42;;;17.80;49.30;;;;;;5034930;28;20029;-60
2022/11/25 05:55:58;;;;;;;3.67;1.25;;;17.80;49.90;;;;;;5034713;28;20083;-57
2022/11/25 05:58:45;;;;;;;4.80;1.30;;;17.80;49.30;;;;;;5035055;28;20029;-54
2022/11/25 06:01:14;;;;;;;4.15;1.50;;;17.80;49.40;;;;;;5034661;28;20083;-53
2022/11/25 06:03:40;;;;;;;3.72;1.40;;;17.80;49.40;;;;;;5018222;28;20361;-58
2022/11/25 06:06:09;;;;;;;3.88;1.20;;;17.80;49.40;;;;;;5018383;28;20053;-59
2022/11/25 06:08:36;;;;;;;4.82;1.20;;;17.80;49.40;;;;;;5035490;28;20103;-58
2022/11/25 06:11:12;;;;;;;4.03;1.50;;;17.80;49.40;;;;;;5018239;28;20057;-56
2022/11/25 06:13:39;;;;;;;3.85;1.38;;;17.80;49.40;;;;;;5018193;28;20033;-57
2022/11/25 06:16:08;;;;;;;4.38;1.40;;;17.80;49.40;;;;;;5034351;28;20057;-54
2022/11/25 06:18:36;;;;;;;3.83;1.20;;;17.80;49.40;;;;;;5033908;28;20128;-57
2022/11/25 06:21:03;;;;;;;3.95;1.30;;;17.80;49.40;;;;;;5017725;28;20365;-58
2022/11/25 06:23:28;;;;;;;5.07;1.38;;;17.80;49.40;;;;;;5033941;28;20124;-61
2022/11/25 06:26:01;;;;;;;3.03;1.25;;;17.80;49.40;;;;;;5034134;28;20057;-58
2022/11/25 06:28:27;;;;;;;3.20;1.00;;;17.80;49.40;;;;;;5033956;28;20140;-57
2022/11/25 06:30:55;;;;;;;4.50;1.23;;;17.80;49.40;;;;;;5034262;28;20034;-58
2022/11/25 06:33:31;;;;;;;2.17;0.90;;;17.80;49.40;;;;;;5033992;28;20418;-54
2022/11/25 06:36:02;;;;;;;3.45;1.20;;;17.80;49.40;;;;;;5034208;28;20026;-57
2022/11/25 06:38:29;;;;;;;3.42;1.00;;;17.80;49.40;;;;;;5035050;28;20441;-57
2022/11/25 06:41:03;;;;;;;2.28;0.90;;;17.80;49.40;;;;;;5033654;28;20053;-58
2022/11/25 06:43:30;;;;;;;3.65;1.38;;;17.80;49.40;;;;;;5034208;28;20086;-56
2022/11/25 06:46:02;;;;;;;1.90;0.95;;;17.80;49.40;;;;;;5033832;28;20025;-58
2022/11/25 06:48:27;;;;;;;3.80;1.23;;;17.80;49.30;;;;;;5035036;28;20037;-55
2022/11/25 06:51:02;;;;;;;2.65;1.00;;;17.80;49.30;;;;;;5034997;28;20561;-59
2022/11/25 06:53:29;;;;;;;2.83;1.13;;;17.80;49.30;;;;;;5033902;28;20033;-58
2022/11/25 06:56:04;;;;;;;2.30;0.90;;;17.80;49.30;;;;;;5033935;28;20034;-58
2022/11/25 06:58:30;;;;;;;2.35;0.82;;;17.80;49.30;;;;;;5017333;28;20441;-56
2022/11/25 07:01:05;;;;;;;2.60;0.90;;;17.80;49.30;;;;;;5034989;28;20041;-57
2022/11/25 07:03:31;;;;;;;3.58;0.90;;;17.80;49.20;;;;;;5017330;28;20037;-56
2022/11/25 07:05:57;;;;;;;2.30;1.13;;;17.80;49.20;;;;;;5033595;28;20101;-56
2022/11/25 07:08:25;;;;;;;1.50;0.80;;;17.80;49.10;;;;;;5033513;28;20129;-56
2022/11/25 07:10:51;;;;;;;2.33;0.80;;;17.80;49.10;;;;;;5033527;28;20045;-54
2022/11/25 07:13:17;;;;;;;2.38;0.90;;;17.80;49.10;;;;;;5033520;28;20061;-55
2022/11/25 07:15:43;;;;;;;2.03;0.93;;;17.80;49.10;;;;;;5034615;28;20065;-57
2022/11/25 07:18:09;;;;;;;3.03;0.90;;;17.80;49.00;;;;;;5037579;28;20487;-56
2022/11/25 07:20:35;;;;;;;2.70;1.00;;;17.80;49.00;;;;;;5036705;28;20032;-58
2022/11/25 07:23:01;;;;;;;2.22;0.73;;;17.80;49.00;;;;;;5054456;28;20033;-56
2022/11/25 07:25:26;;;;;;;1.48;0.57;;;17.80;49.00;;;;;;5054339;28;20102;-56
2022/11/25 07:27:52;;;;;;;2.65;0.82;;;17.80;49.00;;;;;;5036796;28;20028;-56
2022/11/25 07:30:18;;;;;;;2.22;0.82;;;17.80;48.90;;;;;;5054161;28;20041;-57
2022/11/25 07:32:44;;;;;;;2.72;0.80;;;17.80;48.90;;;;;;5054325;28;20033;-56
2022/11/25 07:35:10;;;;;;;1.63;0.80;;;17.80;48.90;;;;;;5054675;28;20371;-53
2022/11/25 07:37:36;;;;;;;1.85;0.73;;;17.80;48.80;;;;;;5054030;28;20048;-60
2022/11/25 07:40:01;;;;;;;3.20;0.85;;;17.80;48.80;;;;;;5054263;28;20117;-57
2022/11/25 07:42:27;;;;;;;2.28;0.77;;;17.80;48.80;;;;;;5036531;28;20025;-55
2022/11/25 07:44:53;;;;;;;3.25;0.82;;;17.80;48.80;;;;;;5037057;28;20041;-58
2022/11/25 07:47:51;;;;;;;2.03;0.90;;;17.80;48.70;;;;;;5009809;28;20041;-56
2022/11/25 07:50:17;;;;;;;1.70;0.75;;;17.80;48.70;;;;;;5040287;28;20422;-58
2022/11/25 07:52:43;;;;;;;2.25;0.80;;;17.80;48.70;;;;;;5040076;28;20037;-59
2022/11/25 07:55:08;;;;;;;1.88;0.68;;;17.80;48.70;;;;;;5057758;28;20090;-58
2022/11/25 07:57:34;;;;;;;1.95;0.80;;;17.80;48.70;;;;;;5058138;28;20044;-58
2022/11/25 08:00:00;;;;;;;2.70;0.90;;;17.80;48.70;;;;;;5058001;28;20079;-53
2022/11/25 08:02:26;;;;;;;1.95;0.90;;;17.80;48.60;;;;;;5057442;28;20036;-58
2022/11/25 08:04:52;;;;;;;2.47;1.00;;;17.80;48.60;;;;;;5057859;28;20021;-56
2022/11/25 08:07:17;;;;;;;2.03;0.65;;;17.90;48.70;;;;;;5023472;28;20029;-60
2022/11/25 08:09:43;;;;;;;2.42;0.75;;;17.80;48.60;;;;;;5039902;28;20041;-59
2022/11/25 08:12:09;;;;;;;2.95;1.20;;;17.80;48.60;;;;;;5057694;28;20047;-56
2022/11/25 08:14:35;;;;;;;2.53;0.90;;;17.80;48.60;;;;;;5040558;28;20502;-58
2022/11/25 08:17:03;;;;;;;2.03;0.70;;;17.80;48.60;;;;;;5057662;28;20116;-59
2022/11/25 08:19:29;;;;;;;2.28;0.90;;;17.80;48.60;;;;;;5057253;28;20415;-55
2022/11/25 08:21:55;;;;;;;3.28;1.00;;;17.80;48.60;;;;;;5057622;28;20098;-56
2022/11/25 08:24:20;;;;;;;3.95;1.00;;;17.80;48.60;;;;;;5056983;28;20033;-55
2022/11/25 08:26:47;;;;;;;1.92;0.70;;;17.80;48.50;;;;;;5039892;28;20112;-56
2022/11/25 08:29:15;;;;;;;1.70;0.80;;;17.80;48.50;;;;;;5057129;28;20223;-59
2022/11/25 08:31:41;;;;;;;1.83;0.88;;;17.80;48.50;;;;;;5039675;28;20037;-59
2022/11/25 08:34:08;;;;;;;2.10;1.05;;;17.90;48.60;;;;;;5057531;28;20036;-58
2022/11/25 08:36:35;;;;;;;3.00;0.88;;;17.90;48.50;;;;;;5039907;28;20463;-58
2022/11/25 08:39:05;;;;;;;1.45;0.88;;;17.90;48.50;;;;;;5039661;28;20041;-56
2022/11/25 08:41:36;;;;;;;1.92;0.70;;;17.90;48.60;;;;;;5057275;28;20036;-57
2022/11/25 08:44:05;;;;;;;2.72;1.17;;;17.90;48.50;;;;;;5057176;28;20029;-59
2022/11/25 08:46:35;;;;;;;1.98;0.80;;;17.90;48.50;;;;;;5039323;28;20033;-57
2022/11/25 08:49:02;;;;;;;3.20;1.30;;;17.90;48.50;;;;;;5039181;28;20032;-56
2022/11/25 08:51:32;;;;;;;3.40;0.90;;;17.90;48.50;;;;;;5057422;28;20043;-59
2022/11/25 08:53:58;;;;;;;2.22;0.93;;;17.90;48.50;;;;;;5038997;28;20040;-57
2022/11/25 08:56:25;;;;;;;2.33;0.77;;;17.90;48.50;;;;;;5056615;28;20052;-57
2022/11/25 08:58:51;;;;;;;2.10;0.90;;;17.90;48.50;;;;;;5056894;28;20057;-57
2022/11/25 09:01:18;;;;;;;2.67;1.05;;;17.90;48.50;;;;;;5055526;28;20075;-54
2022/11/25 09:03:51;;;;;;;2.42;0.90;;;17.90;48.50;;;;;;5056215;28;20503;-56
2022/11/25 09:06:18;;;;;;;2.97;1.27;;;17.90;48.50;;;;;;5056078;28;20467;-58
2022/11/25 09:08:44;;;;;;;2.22;0.95;;;17.90;48.50;;;;;;5056936;28;20071;-57
2022/11/25 09:11:11;;;;;;;2.33;0.90;;;17.90;48.50;;;;;;5056650;28;20381;-57
2022/11/25 09:13:37;;;;;;;2.13;1.05;;;17.90;48.50;;;;;;5056577;28;20120;-57
2022/11/25 09:16:03;;;;;;;3.08;1.20;;;17.90;48.50;;;;;;5038620;28;20031;-57
2022/11/25 09:18:30;;;;;;;2.25;0.90;;;17.90;48.50;;;;;;5056303;28;20076;-53
2022/11/25 09:20:57;;;;;;;3.17;0.90;;;17.90;48.40;;;;;;5056108;28;20424;-59
2022/11/25 09:23:23;;;;;;;3.22;1.20;;;17.90;48.40;;;;;;5038659;28;20033;-59
2022/11/25 09:25:52;;;;;;;1.83;0.75;;;17.90;48.40;;;;;;5056344;28;20104;-57
2022/11/25 09:28:19;;;;;;;2.05;0.80;;;17.90;48.40;;;;;;5056483;28;20349;-55
2022/11/25 09:30:46;;;;;;;1.60;0.70;;;17.90;48.40;;;;;;5056026;28;20037;-57
2022/11/25 09:33:11;;;;;;;1.75;0.75;;;17.90;48.40;;;;;;5056980;28;20344;-60
2022/11/25 09:35:37;;;;;;;3.28;0.90;;;18.00;48.50;;;;;;5038375;28;20037;-59
2022/11/25 09:38:03;;;;;;;2.55;0.82;;;18.00;48.40;;;;;;5056395;28;20037;-53
2022/11/25 09:40:56;;;;;;;2.35;0.80;;;17.90;48.40;;;;;;5038799;28;20102;-58
2022/11/25 09:46:45;;;;;;;3.03;1.02;;;18.00;48.40;;;;;;5055760;28;20036;-59
2022/11/25 09:49:21;;;;;;;2.28;0.82;;;18.00;48.40;;;;;;5056094;28;20032;-59
2022/11/25 09:52:25;;;;;;;3.22;0.85;;;18.00;48.40;;;;;;5055303;28;20116;-58
2022/11/25 09:55:29;;;;;;;2.00;0.93;;;18.00;48.40;;;;;;5037877;28;20471;-60
2022/11/25 09:58:03;;;;;;;2.90;0.95;;;18.00;48.30;;;;;;4974741;28;20128;-59
2022/11/25 10:00:42;;;;;;;2.63;1.00;;;18.00;48.30;;;;;;5028089;28;20052;-60
2022/11/25 10:03:38;;;;;;;2.28;0.80;;;18.00;48.30;;;;;;5038446;28;20033;-58
2022/11/25 10:06:22;;;;;;;1.80;0.77;;;18.00;48.30;;;;;;5021505;28;20097;-58
2022/11/25 10:08:51;;;;;;;3.63;1.40;;;18.00;48.30;;;;;;5055254;28;20102;-55
2022/11/25 10:11:20;;;;;;;3.20;1.30;;;18.00;48.90;;;;;;5054850;28;20025;-56
2022/11/25 10:14:09;;;;;;;2.83;1.10;;;18.00;48.30;;;;;;5055855;28;20025;-56
2022/11/25 10:16:51;;;;;;;2.22;0.80;;;18.00;48.20;;;;;;5055674;28;20032;-56
2022/11/25 10:19:25;;;;;;;3.00;1.10;;;18.00;48.20;;;;;;5037622;28;20068;-58
2022/11/25 10:21:51;;;;;;;;;;;18.00;48.30;;;;;;5055475;28;20094;-58
2022/11/25 10:24:17;;;;;;;2.50;1.05;;;18.00;48.20;;;;;;5037654;28;19917;-57
2022/11/25 10:26:47;;;;;;;2.42;1.10;;;18.00;48.20;;;;;;5055023;28;20045;-54
2022/11/25 10:29:20;;;;;;;1.70;0.90;;;18.00;48.20;;;;;;5055423;28;20037;-58
2022/11/25 10:31:48;;;;;;;2.22;1.20;;;18.00;48.20;;;;;;5037313;28;20075;-58
2022/11/25 10:34:33;;;;;;;2.20;0.85;;;18.00;48.20;;;;;;5055006;28;20441;-59
2022/11/25 10:37:03;;;;;;;3.30;1.17;;;18.00;48.20;;;;;;5037113;28;20086;-57
2022/11/25 10:39:33;;;;;;;3.58;1.55;;;18.00;48.20;;;;;;5055163;28;20090;-57
2022/11/25 10:42:08;;;;;;;2.85;1.10;;;18.10;48.20;;;;;;5055055;28;20033;-58
2022/11/25 10:44:39;;;;;;;3.20;1.38;;;18.00;48.20;;;;;;5054863;28;20029;-57
2022/11/25 10:47:05;;;;;;;2.10;1.05;;;18.10;48.20;;;;;;5037479;28;20029;-58
2022/11/25 10:49:36;;;;;;;3.03;1.23;;;18.10;48.20;;;;;;5054618;28;20098;-58
2022/11/25 10:52:12;;;;;;;9.32;1.45;;;18.10;48.10;;;;;;5054616;28;20036;-59
2022/11/25 10:54:39;;;;;;;4.25;1.20;;;18.10;48.10;;;;;;5037720;28;20029;-59
2022/11/25 10:57:17;;;;;;;2.08;1.13;;;18.10;48.10;;;;;;5036968;28;20115;-58
2022/11/25 10:59:55;;;;;;;3.20;1.40;;;18.10;48.10;;;;;;5036914;28;20037;-55
2022/11/25 11:02:33;;;;;;;3.20;1.48;;;18.10;48.10;;;;;;5037218;28;20029;-59
2022/11/25 11:05:02;;;;;;;4.22;1.50;;;18.10;48.10;;;;;;5054573;28;20025;-56
2022/11/25 11:07:34;;;;;;;2.83;1.25;;;18.10;48.10;;;;;;5054575;28;20357;-57
2022/11/25 11:10:21;;;;;;;3.20;1.50;;;18.10;48.10;;;;;;5036700;28;20059;-58
2022/11/25 11:12:58;;;;;;;2.88;1.20;;;18.10;48.10;;;;;;5054712;28;20048;-58
2022/11/25 11:15:40;;;;;;;2.95;1.30;;;18.10;48.10;;;;;;5037160;28;20037;-60
2022/11/25 11:18:24;;;;;;;3.50;1.23;;;18.10;48.10;;;;;;5054218;28;20032;-58
2022/11/25 11:20:53;;;;;;;3.80;1.40;;;18.10;48.00;;;;;;5054104;28;20068;-58
2022/11/25 11:23:19;;;;;;;3.60;1.58;;;18.10;48.00;;;;;;5055508;28;20083;-57
2022/11/25 11:26:03;;;;;;;2.70;1.38;;;18.10;48.00;;;;;;5058584;28;20390;-59
2022/11/25 11:28:34;;;;;;;3.45;1.40;;;18.20;48.00;;;;;;5041109;28;20025;-55
2022/11/25 11:31:17;;;;;;;3.05;1.25;;;18.20;48.00;;;;;;5058434;28;20096;-56
2022/11/25 11:34:22;;;;;;;2.92;1.40;;;18.20;48.00;;;;;;5040455;28;20102;-56
2022/11/25 11:37:06;;;;;;;2.85;1.40;;;18.20;48.00;;;;;;4997458;28;20063;-58
2022/11/25 11:39:51;;;;;;;3.10;1.30;;;18.20;48.00;;;;;;5058586;28;20033;-57
2022/11/25 11:42:46;;;;;;;3.92;1.52;;;18.20;48.00;;;;;;5058515;28;20091;-57
2022/11/25 11:45:23;;;;;;;4.20;1.27;;;18.20;48.00;;;;;;5036234;28;20449;-54
2022/11/25 11:47:58;;;;;;;2.45;1.38;;;18.20;48.00;;;;;;5057821;28;20084;-58
2022/11/25 11:50:27;;;;;;;3.33;1.42;;;18.20;48.00;;;;;;5057769;28;20076;-58
2022/11/25 11:53:00;;;;;;;3.05;1.20;;;18.20;47.90;;;;;;5057682;28;20037;-60
2022/11/25 11:56:00;;;;;;;3.55;1.35;;;18.20;47.90;;;;;;5040119;28;20098;-57
2022/11/25 11:58:45;;;;;;;2.47;1.23;;;18.20;47.90;;;;;;5040259;28;20037;-57
2022/11/25 12:01:28;;;;;;;1.67;0.95;;;18.20;47.90;;;;;;5057720;28;20083;-57
2022/11/25 12:04:18;;;;;;;2.53;1.40;;;18.20;47.90;;;;;;5058019;28;20349;-58
2022/11/25 12:07:05;;;;;;;4.45;1.70;;;18.20;47.90;;;;;;5058026;28;20031;-57
2022/11/25 12:09:37;;;;;;;2.33;1.30;;;18.20;47.90;;;;;;5057706;28;20120;-59
2022/11/25 12:12:08;;;;;;;2.70;1.13;;;18.20;47.90;;;;;;5057416;28;20043;-58
2022/11/25 12:14:46;;;;;;;4.22;1.40;;;18.20;47.90;;;;;;5057593;28;20117;-57
2022/11/25 12:17:42;;;;;;;2.50;1.20;;;18.20;47.90;;;;;;5058054;28;20029;-57
2022/11/25 12:20:40;;;;;;;3.70;1.42;;;18.30;47.90;;;;;;5056968;28;20056;-56
2022/11/25 12:23:36;;;;;;;2.22;1.20;;;18.30;47.90;;;;;;5039965;28;20040;-58
2022/11/25 12:26:08;;;;;;;3.85;1.73;;;18.30;47.90;;;;;;5039708;28;20452;-58
2022/11/25 12:28:51;;;;;;;3.20;1.42;;;18.30;47.90;;;;;;5056957;28;20032;-58
2022/11/25 12:31:23;;;;;;;3.03;1.42;;;18.30;47.90;;;;;;5039402;28;20360;-58
2022/11/25 12:33:59;;;;;;;4.43;1.52;;;18.30;47.90;;;;;;5056886;28;20557;-57
2022/11/25 12:36:39;;;;;;;3.58;1.25;;;18.30;47.90;;;;;;5040176;28;20314;-57
2022/11/25 12:39:21;;;;;;;5.30;1.50;;;18.30;47.90;;;;;;5057004;28;20112;-57
2022/11/25 12:41:54;;;;;;;4.47;1.50;;;18.30;47.80;;;;;;5057187;28;20503;-57
2022/11/25 12:44:25;;;;;;;2.80;1.30;;;18.30;47.80;;;;;;5057012;28;20029;-58
2022/11/25 12:46:56;;;;;;;4.35;1.40;;;18.30;47.80;;;;;;5056959;28;20360;-56
2022/11/25 12:49:25;;;;;;;3.88;1.40;;;18.30;47.80;;;;;;5039543;28;20365;-54
2022/11/25 12:52:19;;;;;;;4.20;1.30;;;18.30;47.80;;;;;;5056979;28;20029;-58
2022/11/25 12:54:47;;;;;;;3.45;1.23;;;18.30;47.70;;;;;;5039641;28;20029;-56
2022/11/25 12:57:23;;;;;;;4.10;1.30;;;18.30;47.70;;;;;;5056580;28;20059;-53
2022/11/25 13:00:14;;;;;;;2.75;1.20;;;18.30;47.70;;;;;;5039153;28;20041;-56
2022/11/25 13:03:05;;;;;;;4.20;1.33;;;18.30;47.70;;;;;;5057108;28;20037;-58
2022/11/25 13:05:36;;;;;;;3.08;1.17;;;18.30;47.70;;;;;;5056865;28;20383;-56
2022/11/25 13:08:48;;;;;;;3.08;1.50;;;18.30;47.70;;;;;;5056772;28;20067;-55
2022/11/25 13:11:33;;;;;;;3.85;1.20;;;18.30;47.70;;;;;;4995549;28;20444;-54
2022/11/25 13:14:25;;;;;;;5.68;1.45;;;18.30;47.70;;;;;;5039056;28;20506;-57
2022/11/25 13:16:52;;;;;;;3.00;1.42;;;18.30;47.70;;;;;;5056293;28;20045;-57
2022/11/25 13:19:19;;;;;;;5.90;1.85;;;18.30;47.70;;;;;;5056186;28;20410;-56